F/V Calebarian — FVXO — position and weather

sailwx.info

Track history (hours):
 
Tides and Currents Weather Stations Pressure Air Temp Water Temp Dewpoint Dewpoint Depression Visibility Wind Speed Wind Dir Waves Ship Positions

F/V Calebarian

Last reported at 2017-Nov-18 11:35 UTC. Time now 2017-Nov-18 12:20 UTC.
Position N 46°44' W 002°21'.

Length 22 m.

Type: Fishing. MMSI: 227834000.

Date/timePositionNaut miles runAvg speedWind from/ knotsBaromVisibWave heightAir tempDewpointWater temp
2017-Nov-18 11:35N 46°44' W 002°21'0 0.0
2017-Nov-18 11:21N 46°44' W 002°21'0 0.0
2017-Nov-18 10:48N 46°44' W 002°21'0 0.0
2017-Nov-18 10:30N 46°44' W 002°21'0 0.0
2017-Nov-18 09:56N 46°44' W 002°21'0 0.0
2017-Nov-18 08:45N 46°44' W 002°21'0 0.0
2017-Nov-17 11:08N 46°44' W 002°21'0 0.0
2017-Nov-17 10:42N 46°44' W 002°21'0 0.0
2017-Nov-17 10:14N 46°44' W 002°21'0 0.0
2017-Nov-17 09:58N 46°44' W 002°21'0 0.0
2017-Nov-17 09:30N 46°44' W 002°21'0 0.0
2017-Nov-17 09:00N 46°44' W 002°21'0 0.0
2017-Nov-17 08:30N 46°44' W 002°21'0 0.0
2017-Nov-17 07:49N 46°44' W 002°21'0 0.0
2017-Nov-17 07:20N 46°44' W 002°21'0 0.0
2017-Nov-17 07:00N 46°44' W 002°21'0 0.0
2017-Nov-17 06:20N 46°44' W 002°21'0 0.0
2017-Nov-17 05:18N 46°44' W 002°21'0 0.0
2017-Nov-17 05:00N 46°44' W 002°21'0 0.0
2017-Nov-17 04:18N 46°44' W 002°21'0 0.0
2017-Nov-17 04:00N 46°44' W 002°21'0 0.0
2017-Nov-17 03:30N 46°44' W 002°21'0 0.1
2017-Nov-17 02:59N 46°44' W 002°21'4 7.3
2017-Nov-17 02:30N 46°42' W 002°16'5 9.0
2017-Nov-17 02:00N 46°39' W 002°11'5 9.1
2017-Nov-17 01:30N 46°37' W 002°05'5 9.2
2017-Nov-17 01:00N 46°34' W 002°00'510.2
2017-Nov-17 00:30N 46°31' W 001°54'4 8.0
2017-Nov-17 00:00N 46°29' W 001°49'2 3.2
2017-Nov-16 23:31N 46°30' W 001°47'0 0.0
2017-Nov-16 23:00N 46°30' W 001°47'0 0.0
2017-Nov-16 22:30N 46°30' W 001°47'3 5.0
2017-Nov-16 22:00N 46°27' W 001°48'2 4.6
2017-Nov-16 21:30N 46°25' W 001°49'3 6.6
2017-Nov-16 21:01N 46°22' W 001°51'3 6.5
2017-Nov-16 20:30N 46°19' W 001°53'3 6.4
2017-Nov-16 20:00N 46°16' W 001°55'3 6.2
2017-Nov-16 19:28N 46°13' W 001°57'3 6.1
2017-Nov-16 18:59N 46°11' W 001°59'3 5.9
2017-Nov-16 18:30N 46°08' W 002°00'3 5.9
2017-Nov-16 18:00N 46°05' W 002°02'7 5.9
2017-Nov-16 16:51N 45°59' W 002°06'3 6.1
2017-Nov-16 16:21N 45°56' W 002°08'2 6.2
2017-Nov-16 15:59N 45°54' W 002°09'3 6.3
2017-Nov-16 15:30N 45°51' W 002°11'3 6.4
2017-Nov-16 15:00N 45°48' W 002°13'3 6.8
2017-Nov-16 14:30N 45°45' W 002°15'3 6.4
2017-Nov-16 14:00N 45°42' W 002°16'4 6.4
2017-Nov-16 13:25N 45°39' W 002°19'5 7.4
2017-Nov-16 12:41N 45°34' W 002°22'1 5.9
2017-Nov-16 12:30N 45°33' W 002°22'1 0.9
2017-Nov-16 11:55N 45°32' W 002°22'1 1.2
2017-Nov-16 11:27N 45°32' W 002°22'1 0.2
2017-Nov-16 08:02N 45°31' W 002°23'0 1.2
2017-Nov-16 08:00N 45°31' W 002°23'1 1.1
2017-Nov-16 07:24N 45°32' W 002°23'1 1.0
2017-Nov-16 05:58N 45°33' W 002°22'0 0.5
2017-Nov-16 05:30N 45°33' W 002°23'0 0.0
2017-Nov-16 04:01N 45°33' W 002°23'0 0.4
2017-Nov-16 04:00N 45°33' W 002°23'12 0.7
2017-Nov-15 10:33N 45°24' W 002°33'0 1.5
2017-Nov-15 10:28N 45°24' W 002°33'1 0.4
2017-Nov-15 08:36N 45°25' W 002°34'0 1.4
2017-Nov-15 08:18N 45°24' W 002°34'3 2.5
2017-Nov-15 07:11N 45°23' W 002°30'  
2017-Nov-13 02:00N 46°13' W 001°50'3 5.3
2017-Nov-13 01:30N 46°16' W 001°50'3 5.1
2017-Nov-13 01:00N 46°18' W 001°49'3 5.1
2017-Nov-13 00:31N 46°21' W 001°49'3 5.0
2017-Nov-13 00:00N 46°23' W 001°48'2 5.0
2017-Nov-12 23:31N 46°26' W 001°48'2 5.0
2017-Nov-12 23:00N 46°28' W 001°47'2 3.8
2017-Nov-12 22:30N 46°30' W 001°47'0 0.0
2017-Nov-12 22:00N 46°30' W 001°47'4 7.5
2017-Nov-12 21:31N 46°26' W 001°48'4 8.7
2017-Nov-12 21:00N 46°22' W 001°48'4 8.6
2017-Nov-12 20:30N 46°18' W 001°49'4 8.4
2017-Nov-12 20:01N 46°13' W 001°50'  
Track history (hours):
 
Tides and Currents Weather Stations Pressure Air Temp Water Temp Dewpoint Dewpoint Depression Visibility Wind Speed Wind Dir Waves Ship Positions

F/V Calebarian

Last reported at 2017-Nov-18 11:35 UTC. Time now 2017-Nov-18 12:20 UTC.
Position N 46°44' W 002°21'.

Length 22 m.

Type: Fishing. MMSI: 227834000.

Date/timePositionNaut miles runAvg speedWind from/ knotsBaromVisibWave heightAir tempDewpointWater temp
2017-Nov-18 11:35N 46°44' W 002°21'0 0.0
2017-Nov-18 11:21N 46°44' W 002°21'0 0.0
2017-Nov-18 10:48N 46°44' W 002°21'0 0.0
2017-Nov-18 10:30N 46°44' W 002°21'0 0.0
2017-Nov-18 09:56N 46°44' W 002°21'0 0.0
2017-Nov-18 08:45N 46°44' W 002°21'0 0.0
2017-Nov-17 11:08N 46°44' W 002°21'0 0.0
2017-Nov-17 10:42N 46°44' W 002°21'0 0.0
2017-Nov-17 10:14N 46°44' W 002°21'0 0.0
2017-Nov-17 09:58N 46°44' W 002°21'0 0.0
2017-Nov-17 09:30N 46°44' W 002°21'0 0.0
2017-Nov-17 09:00N 46°44' W 002°21'0 0.0
2017-Nov-17 08:30N 46°44' W 002°21'0 0.0
2017-Nov-17 07:49N 46°44' W 002°21'0 0.0
2017-Nov-17 07:20N 46°44' W 002°21'0 0.0
2017-Nov-17 07:00N 46°44' W 002°21'0 0.0
2017-Nov-17 06:20N 46°44' W 002°21'0 0.0
2017-Nov-17 05:18N 46°44' W 002°21'0 0.0
2017-Nov-17 05:00N 46°44' W 002°21'0 0.0
2017-Nov-17 04:18N 46°44' W 002°21'0 0.0
2017-Nov-17 04:00N 46°44' W 002°21'0 0.0
2017-Nov-17 03:30N 46°44' W 002°21'0 0.1
2017-Nov-17 02:59N 46°44' W 002°21'4 7.3
2017-Nov-17 02:30N 46°42' W 002°16'5 9.0
2017-Nov-17 02:00N 46°39' W 002°11'5 9.1
2017-Nov-17 01:30N 46°37' W 002°05'5 9.2
2017-Nov-17 01:00N 46°34' W 002°00'510.2
2017-Nov-17 00:30N 46°31' W 001°54'4 8.0
2017-Nov-17 00:00N 46°29' W 001°49'2 3.2
2017-Nov-16 23:31N 46°30' W 001°47'0 0.0
2017-Nov-16 23:00N 46°30' W 001°47'0 0.0
2017-Nov-16 22:30N 46°30' W 001°47'3 5.0
2017-Nov-16 22:00N 46°27' W 001°48'2 4.6
2017-Nov-16 21:30N 46°25' W 001°49'3 6.6
2017-Nov-16 21:01N 46°22' W 001°51'3 6.5
2017-Nov-16 20:30N 46°19' W 001°53'3 6.4
2017-Nov-16 20:00N 46°16' W 001°55'3 6.2
2017-Nov-16 19:28N 46°13' W 001°57'3 6.1
2017-Nov-16 18:59N 46°11' W 001°59'3 5.9
2017-Nov-16 18:30N 46°08' W 002°00'3 5.9
2017-Nov-16 18:00N 46°05' W 002°02'7 5.9
2017-Nov-16 16:51N 45°59' W 002°06'3 6.1
2017-Nov-16 16:21N 45°56' W 002°08'2 6.2
2017-Nov-16 15:59N 45°54' W 002°09'3 6.3
2017-Nov-16 15:30N 45°51' W 002°11'3 6.4
2017-Nov-16 15:00N 45°48' W 002°13'3 6.8
2017-Nov-16 14:30N 45°45' W 002°15'3 6.4
2017-Nov-16 14:00N 45°42' W 002°16'4 6.4
2017-Nov-16 13:25N 45°39' W 002°19'5 7.4
2017-Nov-16 12:41N 45°34' W 002°22'1 5.9
2017-Nov-16 12:30N 45°33' W 002°22'1 0.9
2017-Nov-16 11:55N 45°32' W 002°22'1 1.2
2017-Nov-16 11:27N 45°32' W 002°22'1 0.2
2017-Nov-16 08:02N 45°31' W 002°23'0 1.2
2017-Nov-16 08:00N 45°31' W 002°23'1 1.1
2017-Nov-16 07:24N 45°32' W 002°23'1 1.0
2017-Nov-16 05:58N 45°33' W 002°22'0 0.5
2017-Nov-16 05:30N 45°33' W 002°23'0 0.0
2017-Nov-16 04:01N 45°33' W 002°23'0 0.4
2017-Nov-16 04:00N 45°33' W 002°23'12 0.7
2017-Nov-15 10:33N 45°24' W 002°33'0 1.5
2017-Nov-15 10:28N 45°24' W 002°33'1 0.4
2017-Nov-15 08:36N 45°25' W 002°34'0 1.4
2017-Nov-15 08:18N 45°24' W 002°34'3 2.5
2017-Nov-15 07:11N 45°23' W 002°30'  
2017-Nov-13 02:00N 46°13' W 001°50'3 5.3
2017-Nov-13 01:30N 46°16' W 001°50'3 5.1
2017-Nov-13 01:00N 46°18' W 001°49'3 5.1
2017-Nov-13 00:31N 46°21' W 001°49'3 5.0
2017-Nov-13 00:00N 46°23' W 001°48'2 5.0
2017-Nov-12 23:31N 46°26' W 001°48'2 5.0
2017-Nov-12 23:00N 46°28' W 001°47'2 3.8
2017-Nov-12 22:30N 46°30' W 001°47'0 0.0
2017-Nov-12 22:00N 46°30' W 001°47'4 7.5
2017-Nov-12 21:31N 46°26' W 001°48'4 8.7
2017-Nov-12 21:00N 46°22' W 001°48'4 8.6
2017-Nov-12 20:30N 46°18' W 001°49'4 8.4
2017-Nov-12 20:01N 46°13' W 001°50'  

Dump ship's entire track history